Time;durP1;ratioP1;P1;durP2;ratioP2;P2;SDS_P1;SDS_P2;PMS_P1;PMS_P2;Temp;Humidity;BMP_temperature;BMP_pressure;BME280_temperature;BME280_humidity;BME280_pressure;Samples;Min_cycle;Max_cycle;Signal;HPM_P1;HPM_P2
2024/03/24 00:01:27;;;;;;;6.70;1.77;;;6.80;99.90;;;;;;4999613;28;20054;-69
2024/03/24 00:03:53;;;;;;;6.53;2.90;;;6.70;99.90;;;;;;4998970;28;20113;-69
2024/03/24 00:06:19;;;;;;;7.53;2.00;;;6.70;99.90;;;;;;4993786;28;20264;-68
2024/03/24 00:08:45;;;;;;;12.35;1.92;;;6.70;99.90;;;;;;5005114;28;20050;-68
2024/03/24 00:11:11;;;;;;;6.22;1.33;;;6.60;99.90;;;;;;4987491;28;20533;-70
2024/03/24 00:13:37;;;;;;;14.52;3.75;;;6.60;99.90;;;;;;5004197;28;20081;-69
2024/03/24 00:16:03;;;;;;;7.63;2.40;;;6.70;99.90;;;;;;5001946;28;20084;-69
2024/03/24 00:18:29;;;;;;;11.30;1.70;;;6.60;99.90;;;;;;5010270;28;20095;-69
2024/03/24 00:20:55;;;;;;;5.05;1.50;;;6.60;99.90;;;;;;5001423;28;20054;-69
2024/03/24 00:23:21;;;;;;;10.70;1.20;;;6.50;99.90;;;;;;5005256;28;20058;-69
2024/03/24 00:25:47;;;;;;;9.95;1.95;;;6.50;99.90;;;;;;4988136;28;20065;-69
2024/03/24 00:28:13;;;;;;;5.07;1.17;;;6.50;99.90;;;;;;4999650;28;20073;-69
2024/03/24 00:30:39;;;;;;;10.85;1.70;;;6.40;99.90;;;;;;5001957;28;20061;-69
2024/03/24 00:33:05;;;;;;;13.05;1.50;;;6.50;99.90;;;;;;5004437;28;20049;-69
2024/03/24 00:35:31;;;;;;;9.90;2.17;;;6.50;99.90;;;;;;5004093;28;20037;-70
2024/03/24 00:37:56;;;;;;;6.35;1.35;;;6.50;99.90;;;;;;5004758;28;20050;-69
2024/03/24 00:40:22;;;;;;;9.35;2.20;;;6.50;99.90;;;;;;5004308;28;20056;-68
2024/03/24 00:42:48;;;;;;;11.30;2.20;;;6.50;99.90;;;;;;5001467;28;20042;-69
2024/03/24 00:45:14;;;;;;;12.88;1.77;;;6.60;99.90;;;;;;5005488;28;20140;-69
2024/03/24 00:47:41;;;;;;;8.85;1.95;;;6.60;99.90;;;;;;4976297;28;20280;-69
2024/03/24 00:50:09;;;;;;;7.40;1.33;;;6.50;99.90;;;;;;5005332;28;20041;-69
2024/03/24 00:52:35;;;;;;;6.93;2.60;;;6.50;99.90;;;;;;5000488;28;20108;-69
2024/03/24 00:55:01;;;;;;;5.22;1.52;;;6.40;99.90;;;;;;5014886;28;20404;-69
2024/03/24 00:57:27;;;;;;;13.13;1.95;;;6.40;99.90;;;;;;5006231;28;20062;-70
2024/03/24 00:59:52;;;;;;;10.70;2.55;;;6.30;99.90;;;;;;5006372;28;20053;-69
2024/03/24 01:02:18;;;;;;;9.20;2.72;;;6.30;99.90;;;;;;5005930;28;20069;-68
2024/03/24 01:04:44;;;;;;;18.30;2.20;;;6.30;99.90;;;;;;5001974;28;20085;-69
2024/03/24 01:07:10;;;;;;;16.13;2.63;;;6.30;99.90;;;;;;5003409;28;20054;-69
2024/03/24 01:09:36;;;;;;;13.77;2.20;;;6.30;99.90;;;;;;5007258;28;20054;-68
2024/03/24 01:12:02;;;;;;;11.77;2.38;;;6.30;99.90;;;;;;5002148;28;20050;-69
2024/03/24 01:14:29;;;;;;;8.18;1.83;;;6.20;99.90;;;;;;5007193;28;20057;-68
2024/03/24 01:16:55;;;;;;;11.10;2.00;;;6.20;99.90;;;;;;5008950;28;20060;-69
2024/03/24 01:19:20;;;;;;;13.70;1.90;;;6.10;99.90;;;;;;5005780;28;20410;-69
2024/03/24 01:21:46;;;;;;;10.20;2.38;;;6.10;99.90;;;;;;5008582;28;20050;-69
2024/03/24 01:24:12;;;;;;;13.77;2.40;;;6.10;99.90;;;;;;5006151;28;20049;-69
2024/03/24 01:26:38;;;;;;;10.50;2.15;;;6.10;99.90;;;;;;5005778;28;20464;-69
2024/03/24 01:29:04;;;;;;;13.98;2.67;;;6.10;99.90;;;;;;5010136;28;20447;-68
2024/03/24 01:31:30;;;;;;;15.48;1.77;;;6.10;99.90;;;;;;5013606;28;20062;-68
2024/03/24 01:33:56;;;;;;;11.52;2.38;;;6.00;99.90;;;;;;5006724;28;20100;-69
2024/03/24 01:36:22;;;;;;;12.82;2.20;;;6.00;99.90;;;;;;5020637;28;20046;-69
2024/03/24 01:38:48;;;;;;;13.02;3.00;;;6.00;99.90;;;;;;5005457;28;20046;-69
2024/03/24 01:41:14;;;;;;;9.07;2.05;;;6.00;99.90;;;;;;5004885;28;20417;-69
2024/03/24 01:43:39;;;;;;;10.57;2.00;;;6.00;99.90;;;;;;5002030;28;20425;-69
2024/03/24 01:46:05;;;;;;;12.93;2.08;;;5.90;99.90;;;;;;5025972;28;20045;-68
2024/03/24 01:48:31;;;;;;;12.15;2.30;;;6.00;99.90;;;;;;5005861;28;20061;-69
2024/03/24 01:50:57;;;;;;;12.50;2.55;;;6.00;99.90;;;;;;5001081;28;20046;-70
2024/03/24 01:53:23;;;;;;;9.23;2.35;;;5.90;99.90;;;;;;5019258;28;20046;-69
2024/03/24 01:55:49;;;;;;;13.02;2.45;;;6.00;99.90;;;;;;5003792;28;20052;-69
2024/03/24 01:58:15;;;;;;;10.57;1.73;;;6.00;99.90;;;;;;5001136;28;20054;-68
2024/03/24 02:00:41;;;;;;;6.32;1.70;;;6.00;99.90;;;;;;4997948;28;20463;-68
2024/03/24 02:03:06;;;;;;;7.00;1.85;;;6.00;99.90;;;;;;5005719;28;20050;-69
2024/03/24 02:05:32;;;;;;;14.05;2.00;;;6.00;99.90;;;;;;5009505;28;20058;-69
2024/03/24 02:07:58;;;;;;;9.80;1.80;;;6.10;99.90;;;;;;5003013;28;20400;-69
2024/03/24 02:10:24;;;;;;;10.65;1.88;;;6.10;99.90;;;;;;4998189;28;20065;-69
2024/03/24 02:12:50;;;;;;;10.80;2.38;;;6.00;99.90;;;;;;5011815;28;20069;-69
2024/03/24 02:15:16;;;;;;;8.85;2.05;;;6.00;99.90;;;;;;5007481;28;20445;-68
2024/03/24 02:17:42;;;;;;;11.85;2.10;;;6.10;99.90;;;;;;5009780;28;20559;-69
2024/03/24 02:20:09;;;;;;;11.77;2.45;;;6.00;99.90;;;;;;5001823;28;20042;-68
2024/03/24 02:22:36;;;;;;;11.30;1.98;;;6.00;99.90;;;;;;5003433;28;20057;-68
2024/03/24 02:25:04;;;;;;;11.38;1.80;;;6.00;99.90;;;;;;5005714;28;20253;-68
2024/03/24 02:27:30;;;;;;;12.68;3.28;;;6.10;99.90;;;;;;5005623;28;20302;-68
2024/03/24 02:29:56;;;;;;;10.88;2.90;;;6.10;99.90;;;;;;5006355;28;20049;-68
2024/03/24 02:32:22;;;;;;;10.57;2.40;;;6.10;99.90;;;;;;5007274;28;20618;-68
2024/03/24 02:34:47;;;;;;;10.43;2.30;;;6.10;99.90;;;;;;4991146;28;20497;-68
2024/03/24 02:37:13;;;;;;;9.00;1.77;;;6.10;99.90;;;;;;5015002;28;20068;-69
2024/03/24 02:39:39;;;;;;;16.10;2.97;;;6.10;99.90;;;;;;5004075;28;20069;-69
2024/03/24 02:42:05;;;;;;;7.70;2.15;;;6.10;99.90;;;;;;5016179;28;20049;-69
2024/03/24 02:44:31;;;;;;;4.47;1.92;;;6.10;99.90;;;;;;5006015;28;20130;-68
2024/03/24 02:46:57;;;;;;;13.30;2.60;;;6.10;99.90;;;;;;5010700;28;20504;-69
2024/03/24 02:49:23;;;;;;;20.40;5.85;;;6.10;99.90;;;;;;5015256;28;20046;-69
2024/03/24 02:51:49;;;;;;;14.00;2.38;;;6.10;99.90;;;;;;5004395;28;20050;-69
2024/03/24 02:54:14;;;;;;;11.02;3.38;;;6.10;99.90;;;;;;5006471;28;20042;-69
2024/03/24 02:56:40;;;;;;;10.77;2.60;;;6.10;99.90;;;;;;5007326;28;20064;-69
2024/03/24 02:59:06;;;;;;;9.13;2.17;;;6.10;99.90;;;;;;5006008;28;20071;-69
2024/03/24 03:01:32;;;;;;;11.18;2.30;;;6.10;99.90;;;;;;5003374;28;20054;-69
2024/03/24 03:03:58;;;;;;;7.85;2.15;;;6.10;99.90;;;;;;5005955;28;20042;-68
2024/03/24 03:06:24;;;;;;;6.63;1.90;;;6.20;99.90;;;;;;5000326;28;20054;-70
2024/03/24 03:08:49;;;;;;;6.68;2.03;;;6.20;99.90;;;;;;5005304;28;20119;-69
2024/03/24 03:11:15;;;;;;;10.07;2.60;;;6.10;99.90;;;;;;5007963;28;20125;-69
2024/03/24 03:13:41;;;;;;;9.43;2.17;;;6.20;99.90;;;;;;5002561;28;20086;-69
2024/03/24 03:16:07;;;;;;;13.07;2.67;;;6.20;99.90;;;;;;5010451;28;20413;-68
2024/03/24 03:18:33;;;;;;;9.68;1.77;;;6.20;99.90;;;;;;5007742;28;20056;-69
2024/03/24 03:20:59;;;;;;;10.52;2.55;;;6.30;99.90;;;;;;5012658;28;20169;-70
2024/03/24 03:23:24;;;;;;;16.63;2.35;;;6.20;99.90;;;;;;5009251;28;20057;-69
2024/03/24 03:25:51;;;;;;;11.07;2.20;;;6.20;99.90;;;;;;5007566;28;20056;-69
2024/03/24 03:28:18;;;;;;;10.85;2.00;;;6.20;99.90;;;;;;5006152;28;20049;-69
2024/03/24 03:30:44;;;;;;;6.00;1.90;;;6.20;99.90;;;;;;5003274;28;20524;-69
2024/03/24 03:33:10;;;;;;;12.27;2.45;;;6.30;99.90;;;;;;5002678;28;20053;-69
2024/03/24 03:35:35;;;;;;;10.95;2.15;;;6.30;99.90;;;;;;5013190;28;20061;-69
2024/03/24 03:38:01;;;;;;;9.00;3.05;;;6.30;99.90;;;;;;5002431;28;20532;-69
2024/03/24 03:40:27;;;;;;;11.57;2.30;;;6.30;99.90;;;;;;5008851;28;20042;-69
2024/03/24 03:42:53;;;;;;;13.68;3.42;;;6.20;99.90;;;;;;5006035;28;20108;-68
2024/03/24 03:45:21;;;;;;;8.90;2.15;;;6.10;99.90;;;;;;5005892;28;20386;-69
2024/03/24 03:47:47;;;;;;;10.27;2.53;;;6.10;99.90;;;;;;5001521;28;20046;-68
2024/03/24 03:50:17;;;;;;;20.08;4.25;;;6.00;99.90;;;;;;5005123;28;20419;-68
2024/03/24 03:52:47;;;;;;;9.90;1.92;;;6.00;99.90;;;;;;5002541;28;20045;-68
2024/03/24 03:55:17;;;;;;;14.60;3.72;;;5.90;99.90;;;;;;5001298;28;20754;-68
2024/03/24 03:57:45;;;;;;;11.75;2.17;;;5.90;99.90;;;;;;5003831;28;20570;-69
2024/03/24 04:00:12;;;;;;;12.18;2.95;;;5.90;99.90;;;;;;4989295;28;20310;-69
2024/03/24 04:02:41;;;;;;;14.80;3.17;;;5.90;99.90;;;;;;5000126;28;20077;-69
2024/03/24 04:05:09;;;;;;;13.05;2.10;;;6.00;99.90;;;;;;5005092;28;20108;-69
2024/03/24 04:07:36;;;;;;;12.90;2.97;;;6.00;99.90;;;;;;5005515;28;20050;-69
2024/03/24 04:10:04;;;;;;;15.30;2.70;;;5.90;99.90;;;;;;5005683;28;20041;-69
2024/03/24 04:12:30;;;;;;;11.18;2.10;;;5.90;99.90;;;;;;4988851;28;20436;-68
2024/03/24 04:15:01;;;;;;;17.10;2.50;;;5.90;99.90;;;;;;4987775;28;20038;-69
2024/03/24 04:17:27;;;;;;;22.88;3.13;;;5.90;99.90;;;;;;5002742;28;20543;-68
2024/03/24 04:19:53;;;;;;;8.43;2.42;;;5.90;99.90;;;;;;5002083;28;20409;-68
2024/03/24 04:22:19;;;;;;;13.73;2.45;;;5.90;99.90;;;;;;5002997;28;20066;-67
2024/03/24 04:24:51;;;;;;;13.13;2.95;;;5.90;99.90;;;;;;5011340;28;20428;-68
2024/03/24 04:27:17;;;;;;;8.82;2.80;;;6.00;99.90;;;;;;5000275;28;20060;-68
2024/03/24 04:29:43;;;;;;;11.55;2.30;;;6.00;99.90;;;;;;5004420;28;20058;-67
2024/03/24 04:32:09;;;;;;;10.70;2.25;;;6.00;99.90;;;;;;5002806;28;20115;-67
2024/03/24 04:34:35;;;;;;;6.00;2.45;;;6.00;99.90;;;;;;4989649;28;20509;-68
2024/03/24 04:37:01;;;;;;;12.88;3.80;;;6.00;99.90;;;;;;5012061;28;20079;-68
2024/03/24 04:39:29;;;;;;;14.00;2.17;;;6.00;99.90;;;;;;5002791;28;20050;-68
2024/03/24 04:41:56;;;;;;;10.05;2.55;;;6.00;99.90;;;;;;5002151;28;20513;-68
2024/03/24 04:44:22;;;;;;;11.50;2.65;;;6.10;99.90;;;;;;5002388;28;20501;-68
2024/03/24 04:46:48;;;;;;;13.75;2.53;;;6.10;99.90;;;;;;5000199;28;20049;-69
2024/03/24 04:49:13;;;;;;;8.32;2.38;;;6.10;99.90;;;;;;5003203;28;20065;-69
2024/03/24 04:51:39;;;;;;;13.43;3.00;;;6.10;99.90;;;;;;5002184;28;20057;-69
2024/03/24 04:54:06;;;;;;;12.68;2.95;;;6.10;99.90;;;;;;4988481;28;20107;-69
2024/03/24 04:56:32;;;;;;;7.30;2.30;;;6.10;99.90;;;;;;5006720;28;20046;-69
2024/03/24 04:58:58;;;;;;;12.82;3.03;;;6.10;99.90;;;;;;4995101;28;20045;-68
2024/03/24 05:01:24;;;;;;;20.95;3.28;;;6.20;99.90;;;;;;5003543;28;20739;-69
2024/03/24 05:03:50;;;;;;;19.38;2.75;;;6.20;99.90;;;;;;5007511;28;20068;-69
2024/03/24 05:06:16;;;;;;;10.80;3.75;;;6.20;99.90;;;;;;5000745;28;20058;-69
2024/03/24 05:08:42;;;;;;;12.57;2.28;;;6.20;99.90;;;;;;5005057;28;20464;-69
2024/03/24 05:11:11;;;;;;;12.50;2.40;;;6.20;99.90;;;;;;5002931;28;20270;-69
2024/03/24 05:13:38;;;;;;;8.00;2.47;;;6.20;99.90;;;;;;4999505;28;20181;-67
2024/03/24 05:16:07;;;;;;;8.38;2.60;;;6.20;99.90;;;;;;4988254;28;20054;-68
2024/03/24 05:18:36;;;;;;;13.43;2.80;;;6.20;99.90;;;;;;4988231;28;20537;-68
2024/03/24 05:21:05;;;;;;;11.43;2.95;;;6.40;99.90;;;;;;5022505;28;20057;-68
2024/03/24 05:23:32;;;;;;;13.43;2.85;;;6.10;99.90;;;;;;5003923;28;20058;-68
2024/03/24 05:25:58;;;;;;;15.20;3.75;;;6.10;99.90;;;;;;5001432;28;20050;-69
2024/03/24 05:28:23;;;;;;;9.27;2.80;;;6.10;99.90;;;;;;4988936;28;20045;-70
2024/03/24 05:30:52;;;;;;;17.95;4.00;;;6.10;99.90;;;;;;5002494;28;20054;-69
2024/03/24 05:33:19;;;;;;;11.10;3.42;;;6.10;99.90;;;;;;5011798;28;20045;-69
2024/03/24 05:35:45;;;;;;;7.63;2.40;;;6.10;99.90;;;;;;5006054;28;20547;-69
2024/03/24 05:38:11;;;;;;;13.02;2.05;;;6.10;99.90;;;;;;5000409;28;20115;-67
2024/03/24 05:40:38;;;;;;;23.90;4.53;;;6.10;99.90;;;;;;5003872;28;20525;-69
2024/03/24 05:43:04;;;;;;;10.35;1.85;;;6.10;99.90;;;;;;5000205;28;20045;-68
2024/03/24 05:45:36;;;;;;;8.68;2.45;;;6.10;99.90;;;;;;5005494;28;20053;-69
2024/03/24 05:48:02;;;;;;;17.52;2.72;;;6.10;99.90;;;;;;5000145;28;20485;-68
2024/03/24 05:50:29;;;;;;;12.10;2.35;;;6.10;99.90;;;;;;4992937;28;20046;-69
2024/03/24 05:52:55;;;;;;;18.83;3.15;;;6.00;99.90;;;;;;5004776;28;20062;-68
2024/03/24 05:55:20;;;;;;;11.93;4.05;;;6.00;99.90;;;;;;5002313;28;20068;-69
2024/03/24 05:57:49;;;;;;;11.10;3.08;;;6.00;99.90;;;;;;5003276;28;20054;-68
2024/03/24 06:00:15;;;;;;;13.27;2.67;;;6.00;99.90;;;;;;5004002;28;20050;-69
2024/03/24 06:02:41;;;;;;;13.32;3.33;;;5.90;99.90;;;;;;5005085;28;20127;-69
2024/03/24 06:05:07;;;;;;;10.15;2.45;;;6.00;99.90;;;;;;5005963;28;20085;-68
2024/03/24 06:07:34;;;;;;;10.23;3.10;;;6.00;99.90;;;;;;5018169;28;20050;-68
2024/03/24 06:10:00;;;;;;;10.13;2.78;;;6.00;99.90;;;;;;5005114;28;20049;-68
2024/03/24 06:12:27;;;;;;;8.75;2.80;;;6.10;99.90;;;;;;5002086;28;20046;-68
2024/03/24 06:14:53;;;;;;;15.20;2.92;;;6.10;99.90;;;;;;5020248;28;20088;-69
2024/03/24 06:17:19;;;;;;;12.27;4.80;;;6.10;99.90;;;;;;5013187;28;20121;-68
2024/03/24 06:19:45;;;;;;;15.20;2.25;;;6.10;99.90;;;;;;5005632;28;20148;-68
2024/03/24 06:22:10;;;;;;;9.75;2.33;;;6.20;99.90;;;;;;5005466;28;20104;-68
2024/03/24 06:24:37;;;;;;;11.60;2.00;;;6.20;99.90;;;;;;5009190;28;20042;-70
2024/03/24 06:27:03;;;;;;;12.35;3.47;;;6.20;99.90;;;;;;5007300;28;20073;-70
2024/03/24 06:29:28;;;;;;;7.72;2.78;;;6.30;99.90;;;;;;5025531;28;20050;-69
2024/03/24 06:31:54;;;;;;;17.67;2.20;;;6.20;99.90;;;;;;5005153;28;20061;-71
2024/03/24 06:34:20;;;;;;;14.75;2.42;;;6.20;99.90;;;;;;5005629;28;20402;-71
2024/03/24 06:36:46;;;;;;;10.00;2.40;;;6.20;99.90;;;;;;5006427;28;20054;-69
2024/03/24 06:39:13;;;;;;;10.60;2.47;;;6.20;99.90;;;;;;4986370;28;20120;-70
2024/03/24 06:41:39;;;;;;;11.55;2.80;;;6.20;99.90;;;;;;5007063;28;20088;-70
2024/03/24 06:44:16;;;;;;;12.48;2.88;;;6.20;99.90;;;;;;5008780;28;20050;-69
2024/03/24 06:46:45;;;;;;;10.35;2.45;;;6.20;99.90;;;;;;5024921;28;20508;-70
2024/03/24 06:49:12;;;;;;;13.75;3.50;;;6.10;99.90;;;;;;5015490;28;20107;-70
2024/03/24 06:51:37;;;;;;;11.23;2.67;;;6.20;99.90;;;;;;5018281;28;20053;-70
2024/03/24 06:54:03;;;;;;;6.95;2.35;;;6.20;99.90;;;;;;5017195;28;20072;-70
2024/03/24 06:56:30;;;;;;;14.05;2.30;;;6.20;99.90;;;;;;5009671;28;20061;-69
2024/03/24 06:58:56;;;;;;;8.05;2.20;;;6.10;99.90;;;;;;5010653;28;20301;-68
2024/03/24 07:01:22;;;;;;;7.25;2.25;;;6.10;99.90;;;;;;5003947;28;20042;-71
2024/03/24 07:03:47;;;;;;;12.60;2.38;;;6.20;99.90;;;;;;5005788;28;20049;-70
2024/03/24 07:06:13;;;;;;;8.45;2.20;;;6.10;99.90;;;;;;5001232;28;20049;-69
2024/03/24 07:08:40;;;;;;;9.20;2.63;;;6.20;99.90;;;;;;5004072;28;20057;-68
2024/03/24 07:11:07;;;;;;;11.95;3.15;;;6.20;99.90;;;;;;5027260;28;20037;-69
2024/03/24 07:13:42;;;;;;;14.23;3.33;;;6.20;99.90;;;;;;4989085;28;20050;-74
2024/03/24 07:16:08;;;;;;;6.03;2.55;;;6.30;99.90;;;;;;5021734;28;20046;-71
2024/03/24 07:18:37;;;;;;;10.50;2.67;;;6.50;99.90;;;;;;4988849;28;20046;-72
2024/03/24 07:21:05;;;;;;;9.98;2.30;;;6.30;99.90;;;;;;5002478;28;20057;-72
2024/03/24 07:23:31;;;;;;;11.73;3.08;;;6.30;99.90;;;;;;5006292;28;20081;-73
2024/03/24 07:26:00;;;;;;;13.32;2.65;;;6.40;99.90;;;;;;5005593;28;20057;-73
2024/03/24 07:28:29;;;;;;;12.93;2.78;;;6.40;99.90;;;;;;5006524;28;20050;-74
2024/03/24 07:30:55;;;;;;;11.48;2.70;;;6.40;99.90;;;;;;5000688;28;20046;-73
2024/03/24 07:33:20;;;;;;;10.13;2.78;;;6.50;99.90;;;;;;5028922;28;20054;-72
2024/03/24 07:35:46;;;;;;;9.00;2.35;;;6.50;99.90;;;;;;5009940;28;20324;-71
2024/03/24 07:38:12;;;;;;;6.82;2.13;;;6.70;99.90;;;;;;5015119;28;20053;-69
2024/03/24 07:40:38;;;;;;;7.88;2.08;;;6.70;99.90;;;;;;5000818;28;20112;-71
2024/03/24 07:43:08;;;;;;;10.50;2.78;;;6.80;99.90;;;;;;5007919;28;20050;-72
2024/03/24 07:45:34;;;;;;;7.25;2.50;;;6.80;99.90;;;;;;5010109;28;20046;-72
2024/03/24 07:48:00;;;;;;;9.02;2.72;;;6.90;99.90;;;;;;5001569;28;20065;-71
2024/03/24 07:50:26;;;;;;;14.63;3.40;;;6.80;99.90;;;;;;5007212;28;20564;-74
2024/03/24 07:52:52;;;;;;;12.73;3.63;;;6.90;99.90;;;;;;5009232;28;20085;-71
2024/03/24 07:55:19;;;;;;;21.77;5.00;;;7.00;99.90;;;;;;5002930;28;20076;-69
2024/03/24 07:57:45;;;;;;;8.05;2.78;;;7.00;99.90;;;;;;5002633;28;20501;-70
2024/03/24 08:00:12;;;;;;;8.48;2.85;;;7.10;99.90;;;;;;5007170;28;20092;-70
2024/03/24 08:02:38;;;;;;;13.57;3.53;;;7.10;99.90;;;;;;5007083;28;20049;-70
2024/03/24 08:05:05;;;;;;;9.93;2.03;;;7.20;99.90;;;;;;4658497;28;10000321;-72
2024/03/24 08:07:31;;;;;;;13.15;2.97;;;7.20;99.90;;;;;;5005151;28;20065;-72
2024/03/24 08:09:57;;;;;;;9.68;2.33;;;7.20;99.90;;;;;;5004613;28;20529;-71
2024/03/24 08:12:22;;;;;;;8.52;2.28;;;7.30;99.90;;;;;;5004027;28;20058;-71
2024/03/24 08:14:48;;;;;;;11.55;2.50;;;7.30;99.90;;;;;;5025363;28;20057;-71
2024/03/24 08:17:14;;;;;;;12.75;3.55;;;7.30;99.90;;;;;;5009938;28;20068;-72
2024/03/24 08:19:40;;;;;;;16.13;3.63;;;7.40;99.90;;;;;;4992535;28;20058;-71
2024/03/24 08:22:06;;;;;;;7.93;2.58;;;7.40;99.90;;;;;;5010726;28;20088;-72
2024/03/24 08:24:32;;;;;;;9.38;2.08;;;7.40;99.90;;;;;;5002888;28;20131;-72
2024/03/24 08:26:57;;;;;;;11.50;3.03;;;7.50;99.90;;;;;;5017221;28;20655;-71
2024/03/24 08:29:23;;;;;;;9.02;2.80;;;7.50;99.90;;;;;;5002084;28;20053;-71
2024/03/24 08:31:49;;;;;;;10.73;2.30;;;7.50;99.90;;;;;;5003598;28;20132;-71
2024/03/24 08:34:15;;;;;;;11.07;3.28;;;7.50;99.90;;;;;;4999022;28;20058;-72
2024/03/24 08:36:41;;;;;;;15.73;2.55;;;7.50;99.90;;;;;;5002296;28;20077;-73
2024/03/24 08:39:07;;;;;;;8.10;2.30;;;7.50;99.90;;;;;;5016688;28;20058;-71
2024/03/24 08:41:33;;;;;;;18.02;2.90;;;7.60;99.90;;;;;;4985868;28;20050;-71
2024/03/24 08:43:59;;;;;;;5.88;1.90;;;7.60;99.90;;;;;;4985813;28;20061;-71
2024/03/24 08:46:25;;;;;;;9.02;2.53;;;7.60;99.90;;;;;;4983582;28;21237;-72
2024/03/24 08:48:52;;;;;;;12.10;1.90;;;7.70;99.90;;;;;;4998484;28;20062;-73
2024/03/24 08:51:21;;;;;;;7.22;1.85;;;7.80;99.90;;;;;;4999828;28;20559;-71
2024/03/24 08:53:46;;;;;;;9.55;2.17;;;7.80;99.90;;;;;;4999418;28;20053;-70
2024/03/24 08:56:12;;;;;;;9.32;2.97;;;7.90;99.90;;;;;;5001601;28;20463;-72
2024/03/24 08:58:38;;;;;;;9.25;2.00;;;7.90;99.90;;;;;;4997788;28;20073;-71
2024/03/24 09:01:04;;;;;;;11.60;1.90;;;8.00;99.90;;;;;;5001750;28;20057;-71
2024/03/24 09:03:30;;;;;;;5.75;1.30;;;8.00;99.90;;;;;;5000029;28;20050;-70
2024/03/24 09:05:56;;;;;;;4.95;1.50;;;8.00;99.90;;;;;;5000324;28;20046;-71
2024/03/24 09:08:22;;;;;;;6.50;1.25;;;8.00;99.90;;;;;;5002702;28;20064;-71
2024/03/24 09:10:47;;;;;;;9.40;2.05;;;8.00;99.90;;;;;;5000858;28;20050;-70
2024/03/24 09:13:13;;;;;;;9.45;1.88;;;8.10;99.90;;;;;;4997400;28;20089;-69
2024/03/24 09:15:39;;;;;;;7.97;1.70;;;8.20;99.90;;;;;;5001432;28;20053;-71
2024/03/24 09:18:05;;;;;;;4.18;1.17;;;8.20;99.90;;;;;;5002427;28;20060;-70
2024/03/24 09:20:31;;;;;;;8.93;2.03;;;8.30;99.90;;;;;;5002155;28;20052;-70
2024/03/24 09:22:56;;;;;;;4.47;1.48;;;8.40;99.90;;;;;;5020510;28;20521;-69
2024/03/24 09:25:22;;;;;;;9.68;1.40;;;8.40;99.90;;;;;;5006990;28;20426;-69
2024/03/24 09:27:49;;;;;;;5.43;1.50;;;8.40;99.90;;;;;;5014658;28;20819;-70
2024/03/24 09:30:15;;;;;;;7.03;1.58;;;8.50;99.90;;;;;;5004185;28;20049;-70
2024/03/24 09:32:41;;;;;;;12.80;1.80;;;8.60;99.90;;;;;;5005412;28;20567;-69
2024/03/24 09:35:08;;;;;;;7.15;1.60;;;8.70;99.90;;;;;;5006524;28;20050;-69
2024/03/24 09:37:34;;;;;;;7.60;1.35;;;8.80;99.90;;;;;;5011350;28;20046;-71
2024/03/24 09:40:00;;;;;;;7.47;1.08;;;9.30;99.90;;;;;;5003469;28;20087;-71
2024/03/24 09:42:26;;;;;;;8.00;1.83;;;9.60;99.90;;;;;;5007782;28;20108;-70
2024/03/24 09:44:52;;;;;;;2.40;1.00;;;9.40;99.90;;;;;;5008860;28;20504;-71
2024/03/24 09:47:18;;;;;;;8.93;1.90;;;9.30;99.90;;;;;;4992445;28;20065;-69
2024/03/24 09:49:44;;;;;;;6.18;1.73;;;9.40;99.90;;;;;;5022502;28;20050;-71
2024/03/24 09:52:10;;;;;;;4.15;1.23;;;9.30;99.90;;;;;;4973177;28;20058;-72
2024/03/24 09:54:35;;;;;;;9.02;1.45;;;9.30;99.90;;;;;;5021610;28;20502;-71
2024/03/24 09:57:01;;;;;;;2.35;0.80;;;9.40;99.90;;;;;;5004291;28;20058;-71
2024/03/24 09:59:28;;;;;;;8.38;1.52;;;9.40;99.90;;;;;;4987718;28;20556;-72
2024/03/24 10:01:53;;;;;;;7.95;1.50;;;9.40;99.90;;;;;;5004369;28;20045;-70
2024/03/24 10:04:21;;;;;;;2.08;0.95;;;9.40;99.90;;;;;;5004156;28;20167;-72
2024/03/24 10:06:47;;;;;;;4.60;1.17;;;9.60;99.90;;;;;;5002403;28;20058;-71
2024/03/24 10:09:16;;;;;;;7.65;1.50;;;9.60;99.90;;;;;;5008345;28;20446;-71
2024/03/24 10:11:43;;;;;;;6.85;1.80;;;9.70;99.90;;;;;;5003255;28;20565;-72
2024/03/24 10:14:13;;;;;;;5.90;0.85;;;9.80;99.90;;;;;;4988756;28;20516;-72
2024/03/24 10:16:39;;;;;;;4.60;1.27;;;9.80;99.90;;;;;;4995537;28;20054;-71
2024/03/24 10:19:12;;;;;;;9.23;1.40;;;9.90;99.90;;;;;;5004787;28;20108;-71
2024/03/24 10:21:39;;;;;;;10.55;1.98;;;9.90;99.90;;;;;;4996822;28;20093;-71
2024/03/24 10:24:06;;;;;;;6.00;1.75;;;10.00;99.90;;;;;;4999745;28;20076;-71
2024/03/24 10:26:36;;;;;;;7.32;1.80;;;10.10;99.90;;;;;;5031375;28;20054;-71
2024/03/24 10:29:03;;;;;;;4.68;1.10;;;10.10;99.90;;;;;;5016240;28;20400;-70
2024/03/24 10:31:29;;;;;;;4.00;1.33;;;10.10;99.90;;;;;;5015005;28;20049;-70
2024/03/24 10:33:55;;;;;;;4.45;0.90;;;10.10;99.90;;;;;;4994258;28;20132;-72
2024/03/24 10:36:21;;;;;;;7.53;1.35;;;9.90;99.90;;;;;;5003377;28;20050;-71
2024/03/24 10:38:47;;;;;;;6.88;0.90;;;10.00;99.90;;;;;;5009346;28;20058;-70
2024/03/24 10:41:13;;;;;;;4.13;1.63;;;10.10;99.90;;;;;;4988677;28;20095;-71
2024/03/24 10:43:39;;;;;;;4.55;1.10;;;10.40;99.90;;;;;;4972812;28;20057;-71
2024/03/24 10:46:07;;;;;;;8.07;1.20;;;10.50;99.90;;;;;;5001399;28;20042;-70
2024/03/24 10:48:34;;;;;;;5.00;1.60;;;10.50;99.90;;;;;;5005794;28;20065;-70
2024/03/24 10:51:01;;;;;;;3.05;1.05;;;10.50;99.90;;;;;;5003853;28;20072;-70
2024/03/24 10:53:28;;;;;;;7.03;1.40;;;10.40;99.90;;;;;;5001860;28;20120;-69
2024/03/24 10:56:00;;;;;;;5.82;1.58;;;10.40;99.90;;;;;;5004990;28;20464;-69
2024/03/24 10:58:27;;;;;;;4.18;1.25;;;10.30;99.90;;;;;;5000671;28;20066;-69
2024/03/24 11:00:53;;;;;;;7.20;1.40;;;10.20;99.90;;;;;;5005184;28;20054;-68
2024/03/24 11:03:20;;;;;;;4.10;1.17;;;10.30;99.90;;;;;;5003298;28;20076;-70
2024/03/24 11:05:50;;;;;;;5.32;1.27;;;10.50;99.90;;;;;;4998971;28;20058;-69
2024/03/24 11:08:17;;;;;;;5.13;1.10;;;10.50;99.90;;;;;;5002137;28;20054;-69
2024/03/24 11:10:46;;;;;;;3.38;1.00;;;10.40;99.90;;;;;;5007431;28;20038;-69
2024/03/24 11:13:17;;;;;;;6.00;1.10;;;10.30;99.90;;;;;;4986735;28;20481;-69
2024/03/24 11:15:46;;;;;;;3.15;1.10;;;10.30;99.90;;;;;;4987812;28;20041;-70
2024/03/24 11:18:28;;;;;;;10.38;1.20;;;10.30;99.90;;;;;;4999632;28;20046;-69
2024/03/24 11:21:01;;;;;;;5.82;1.27;;;10.40;99.90;;;;;;4988103;28;20064;-69
2024/03/24 11:23:46;;;;;;;2.50;1.08;;;10.60;99.90;;;;;;5020201;28;20073;-70
2024/03/24 11:26:15;;;;;;;3.25;0.68;;;10.70;99.90;;;;;;4979663;28;20402;-70
2024/03/24 11:28:48;;;;;;;3.38;1.23;;;10.90;99.90;;;;;;4998648;28;20706;-69
2024/03/24 11:31:20;;;;;;;5.93;1.40;;;11.10;99.90;;;;;;5008529;28;20509;-69
2024/03/24 11:34:10;;;;;;;7.22;1.17;;;11.30;99.90;;;;;;4988006;28;20122;-68
2024/03/24 11:36:36;;;;;;;5.47;1.85;;;11.10;99.90;;;;;;4991281;28;20061;-68
2024/03/24 11:39:11;;;;;;;3.28;1.20;;;11.20;99.90;;;;;;5013023;28;20407;-69
2024/03/24 11:41:53;;;;;;;4.85;1.15;;;11.20;99.90;;;;;;5005078;28;20057;-69
2024/03/24 11:44:19;;;;;;;5.57;1.23;;;11.10;99.90;;;;;;5002247;28;20651;-69
2024/03/24 11:46:45;;;;;;;6.85;1.52;;;11.20;99.90;;;;;;5002548;28;20062;-68
2024/03/24 11:49:11;;;;;;;8.63;1.23;;;11.30;99.90;;;;;;4986460;28;20058;-68
2024/03/24 11:51:37;;;;;;;4.25;1.75;;;11.40;99.90;;;;;;4989421;28;20060;-68
2024/03/24 11:54:06;;;;;;;6.57;1.50;;;11.50;99.90;;;;;;5005560;28;20132;-69
2024/03/24 11:56:32;;;;;;;2.58;1.10;;;11.60;99.90;;;;;;4988356;28;20148;-70
2024/03/24 11:58:58;;;;;;;4.20;1.10;;;11.60;99.90;;;;;;4980981;28;20321;-68
2024/03/24 12:01:24;;;;;;;6.10;1.30;;;11.30;99.90;;;;;;5010976;28;20105;-69
2024/03/24 12:03:51;;;;;;;5.95;2.00;;;11.40;99.90;;;;;;4999045;28;20053;-70
2024/03/24 12:06:18;;;;;;;9.05;1.83;;;11.30;99.90;;;;;;4982194;28;20167;-68
2024/03/24 12:08:47;;;;;;;3.72;1.08;;;11.40;99.90;;;;;;5001506;28;20493;-68
2024/03/24 12:11:15;;;;;;;2.63;0.90;;;11.50;99.90;;;;;;5013047;28;20112;-69
2024/03/24 12:13:41;;;;;;;4.78;1.33;;;11.70;99.90;;;;;;4999714;28;20054;-69
2024/03/24 12:16:07;;;;;;;6.90;1.95;;;11.80;99.90;;;;;;5002308;28;20053;-69
2024/03/24 12:18:33;;;;;;;7.88;1.70;;;11.50;99.90;;;;;;4998222;28;20058;-69
2024/03/24 12:21:02;;;;;;;2.88;0.73;;;11.50;99.90;;;;;;5011811;28;20050;-69
2024/03/24 12:23:29;;;;;;;6.45;2.03;;;11.60;99.90;;;;;;5000577;28;20041;-69
2024/03/24 12:25:55;;;;;;;3.65;0.90;;;11.70;99.90;;;;;;4993558;28;20050;-69
2024/03/24 12:28:21;;;;;;;5.22;1.50;;;11.80;99.90;;;;;;4991581;28;20566;-69
2024/03/24 12:30:57;;;;;;;3.42;2.10;;;11.90;99.90;;;;;;5001954;28;20432;-68
2024/03/24 12:33:24;;;;;;;5.40;1.15;;;12.00;99.60;;;;;;5000536;28;20535;-69
2024/03/24 12:35:51;;;;;;;3.72;1.15;;;11.90;99.90;;;;;;5002635;28;20128;-68
2024/03/24 12:38:17;;;;;;;5.55;1.00;;;12.10;99.90;;;;;;4991445;28;20065;-68
2024/03/24 12:40:50;;;;;;;4.80;1.20;;;12.10;98.90;;;;;;5000485;28;20058;-68
2024/03/24 12:43:16;;;;;;;4.72;1.60;;;12.00;99.00;;;;;;4964149;28;20103;-69
2024/03/24 12:45:58;;;;;;;5.70;1.20;;;11.90;99.90;;;;;;5012862;28;20078;-69
2024/03/24 12:48:26;;;;;;;3.10;1.05;;;11.80;99.30;;;;;;5006045;28;20053;-69